Sunday, May 29, 2016
21:08 UTC
  |  Log In   |  Register Free
Airport Search:

Norwood Memorial Airport
(KOWD)

FAA data valid effective Mar 31 2016 - May 26 2016 (unless otherwise noted).

 
 
 
 
 
 
 
 
 
 
 
 
 
 
Current Aviation Weather for KOWD

Weather Summary


The most recent METAR observation for OWD was updated at: 12:53 UTC
METAR for KOWD is not available. Closest METAR is for KBOS
KOWD  (most recent observation was updatred at 29:20 UTC)
292053Z 06008KT 6SM HZ OVC009 14/12 A3017 RMK AO2 SLP217 T01440117 56005

KBOS  (12.7 nm SW)   (most recent observation was updated at 29:20 UTC)
292054Z 03008KT 9SM OVC009 14/11 A3019 RMK AO2 SLP223 T01390111 56007

KBED  (17.6 nm SE)   (most recent observation was updated at 29:20 UTC)
292056Z 06007KT 10SM OVC008 14/11 A3017 RMK AO2 SLP230 T01390111 56010

TAF for KOWD is not available.
KBOS  (12.7 nm SW)   (most recent observation was updatred at 29:20 UTC)
AMD 292003Z 2920/3024 05008KT P6SM OVC009 FM300000 08006KT 5SM BR OVC008 FM300400 18004KT 2SM BR VCSH OVC003 FM301000 20004KT 1SM -SHRA BR OVC003 FM301800 22008KT 5SM -SHRA BR OVC015 FM302100 22008KT P6SM OVC015 FM302200 22008KT P6SM OVC050


KBED  (17.6 nm SE)   (most recent observation was updatred at 29:17 UTC)
291720Z 2918/3018 06007KT P6SM BKN010 FM300100 10005KT P6SM BKN015 FM300300 VRB03KT 3SM BR BKN003 FM300500 VRB03KT 3SM BR VCSH BKN003 FM300800 00000KT 2SM -SHRA BR OVC003 FM301600 21006KT 3SM -SHRA BR OVC008


KPVD  (30.2 nm NE)   (most recent observation was updatred at 29:20 UTC)
AMD 292006Z 2920/3018 15010KT P6SM FEW050 BKN250 FM300100 18006KT P6SM BKN010 FM300300 19006KT 3SM BR OVC008 FM300600 19005KT 1SM -SHRA BR OVC003 FM301700 21008KT 2SM -SHRA BR OVC008
GlobalAir.com is loading additional information.
 Current Weather at OWD
62.0 F° (16.7 C°)

East winds at 10.4 mph
Pressure:
30.18 in
Humidity:
78%
Wind:
East at 10.4 mph
Dew Point:
55.0 F° (12.8 C°)
Visibility:
8.00 mi
OWD NOAA Radar




Find All Airport Services Find A Hotel Find A Rental Car Find A Golf Course Find A Restaurant $100 Hamburger



Airport Weather Forecast for KOWD

Translated METAR for KOWD (2053 UTC)
METAR:
KOWD 292053Z 06008KT 6SM HZ OVC009 14/12 A3017 RMK AO2 SLP217 T01440117 56005
Conditions at:
KOWD (Norwood Memorial, MA) observed 2053 UTC 29 May 2016
Temperature:
14°C (57.2°F)
Dewpoint:
12°C (53.6°F) [RH = 87.7]
Pressure:
30.17 inches Hg (1021.7 mb)
pressure at sea level is 217 in Hg
Winds:
from the ENE (060 degrees) at 9.2 mph (8 knots: 4.1 m/s)
Visibility:
6 mile(s)
Ceiling:
900 feet AGL
Clouds:
Overcast Skies at 900 feet AGL
Remarks:
site is automated and HAS a precipitation sensor

Translated TAF for KBOS (General Edward Lawrence Logan Intl, MA) (2003 UTC)
TAF text:
KBOS 292003Z 2920/3024 05008KT P6SM OVC009
Forecast period:
Sunday May 29 2016 20:00 UTC - Monday May 30 2016 24:00 UTC
Forecast type:
FROM: standard forecast or significant change
Winds:
from the NE (050 degrees) at 9.2 mph (8 knots: 4.1 m/s)
Visibility:
6 or more mile(s) (9.7+ km)
Ceiling:
900 feet AGL
Clouds:
Overcast Skies at 900 feet AGL
Weather:
no significant weather observed at this time
TAF text:
FM300000 08006KT 5SM BR OVC008
Forecast period:
Monday May 30 2016 00:00 UTC - Monday May 30 2016 04:00 UTC
Forecast type:
FROM: standard forecast or significant change
Winds:
from the E (080 degrees) at 6.9 mph (6 knots: 3.1 m/s)
Visibility:
5 mile(s) (8 km)
Ceiling:
800 feet AGL
Clouds:
Overcast Skies at 800 feet AGL
Weather:
Moderate Mist
TAF text:
FM300400 18004KT 2SM BR VCSH OVC003
Forecast period:
Monday May 30 2016 04:00 UTC - Monday May 30 2016 10:00 UTC
Forecast type:
FROM: standard forecast or significant change
Winds:
from the S (180 degrees) at 4.6 mph (4 knots: 2.1 m/s)
Visibility:
2 mile(s) (3.2 km)
Ceiling:
300 feet AGL
Clouds:
Overcast Skies at 300 feet AGL
Weather:
Moderate Mist
TAF text:
FM301000 20004KT 1SM -SHRA BR OVC003
Forecast period:
Monday May 30 2016 10:00 UTC - Monday May 30 2016 18:00 UTC
Forecast type:
FROM: standard forecast or significant change
Winds:
from the SSW (200 degrees) at 4.6 mph (4 knots: 2.1 m/s)
Visibility:
1 mile(s) (1.6 km)
Ceiling:
300 feet AGL
Clouds:
Overcast Skies at 300 feet AGL
Weather:
Light Shower(s) Rain
TAF text:
FM301800 22008KT 5SM -SHRA BR OVC015
Forecast period:
Monday May 30 2016 18:00 UTC - Monday May 30 2016 21:00 UTC
Forecast type:
FROM: standard forecast or significant change
Winds:
from the SW (220 degrees) at 9.2 mph (8 knots: 4.1 m/s)
Visibility:
5 mile(s) (8 km)
Ceiling:
1,500 feet AGL
Clouds:
Overcast Skies at 1,500 feet AGL
Weather:
Light Shower(s) Rain
TAF text:
FM302100 22008KT P6SM OVC015
Forecast period:
Monday May 30 2016 21:00 UTC - Monday May 30 2016 22:00 UTC
Forecast type:
FROM: standard forecast or significant change
Winds:
from the SW (220 degrees) at 9.2 mph (8 knots: 4.1 m/s)
Visibility:
6 or more mile(s) (9.7+ km)
Ceiling:
1,500 feet AGL
Clouds:
Overcast Skies at 1,500 feet AGL
Weather:
no significant weather observed at this time
TAF text:
FM302200 22008KT P6SM OVC050
Forecast period:
Monday May 30 2016 22:00 UTC - Monday May 30 2016 24:00 UTC
Forecast type:
FROM: standard forecast or significant change
Winds:
from the SW (220 degrees) at 9.2 mph (8 knots: 4.1 m/s)
Visibility:
6 or more mile(s) (9.7+ km)
Ceiling:
5,000 feet AGL
Clouds:
Overcast Skies at 5,000 feet AGL
Weather:
no significant weather observed at this time
FBO's on the Field
FBO Company Facility Photos Services Transportation Aviation Fuel Prices: Prices include tax
Catering Weather Repair Courtesy Rental Type 100LL JetA JetA+ MOGAS 8087
 
FlightLevel Aviation - OWD

Currently rated 5 by 3 people
FS:Shell
Last Updated: May-26
Login to update fuel prices
SS:
Contact FlightLevel Aviation - OWDMore FBO Information
 
Add another FBO Facility Photos Catering Weather Repair Courtesy Rental Type 100LL JetA JetA+ MOGAS 8087
Services Transportation Aviation Fuel Prices: Prices include tax


model-print
model-print
model-print
model-print